createdAt,value
2019-05-29T00:02:01.749Z,100.00
2019-05-29T00:04:31.460Z,100.00
2019-05-29T00:07:01.164Z,100.00
2019-05-29T00:09:30.825Z,99.99
2019-05-29T00:12:00.497Z,100.00
2019-05-29T00:14:30.231Z,99.88
2019-05-29T00:17:00.074Z,99.87
2019-05-29T00:19:29.792Z,99.56
2019-05-29T00:21:59.525Z,99.31
2019-05-29T00:24:29.325Z,99.35
2019-05-29T00:26:59.133Z,99.21
2019-05-29T00:29:28.927Z,99.12
2019-05-29T00:31:58.721Z,98.98
2019-05-29T00:34:28.535Z,99.33
2019-05-29T00:36:58.309Z,99.69
2019-05-29T00:39:28.086Z,100.00
2019-05-29T00:41:57.808Z,100.00
2019-05-29T00:44:34.271Z,100.00
2019-05-29T00:46:59.132Z,100.00
2019-05-29T00:49:28.992Z,100.00
2019-05-29T00:51:58.891Z,100.00
2019-05-29T00:54:28.603Z,100.00
2019-05-29T00:56:58.384Z,100.00
2019-05-29T00:59:28.212Z,100.00
2019-05-29T01:01:57.974Z,100.00
2019-05-29T01:04:27.726Z,100.00
2019-05-29T01:06:57.537Z,100.00
2019-05-29T01:09:27.274Z,100.00
2019-05-29T01:11:57.062Z,100.00
2019-05-29T01:14:26.793Z,100.00
2019-05-29T01:16:56.520Z,100.00
2019-05-29T01:19:26.409Z,100.00
2019-05-29T01:21:57.151Z,100.00
2019-05-29T01:24:27.460Z,100.00
2019-05-29T01:26:57.284Z,100.00
2019-05-29T01:29:27.100Z,100.00
2019-05-29T01:31:56.854Z,100.00
2019-05-29T01:34:26.658Z,100.00
2019-05-29T01:36:56.415Z,100.00
2019-05-29T01:39:26.152Z,100.00
2019-05-29T01:41:55.995Z,100.00
2019-05-29T01:44:25.738Z,100.00
2019-05-29T01:46:55.487Z,100.00
2019-05-29T01:49:25.244Z,100.00
2019-05-29T01:51:54.979Z,100.00
2019-05-29T01:54:24.713Z,100.00
2019-05-29T01:56:54.532Z,100.00
2019-05-29T01:59:24.270Z,100.00
2019-05-29T02:01:54.081Z,100.00
2019-05-29T02:04:24.241Z,100.00
2019-05-29T02:06:54.091Z,100.00
2019-05-29T02:09:24.276Z,100.00
2019-05-29T02:11:54.210Z,100.00
2019-05-29T02:14:24.893Z,100.00
2019-05-29T02:16:55.098Z,100.00
2019-05-29T02:19:25.998Z,100.00
2019-05-29T02:21:55.768Z,100.00
2019-05-29T02:24:25.694Z,100.00
2019-05-29T02:26:55.436Z,100.00
2019-05-29T02:29:25.262Z,100.00
2019-05-29T02:31:54.978Z,100.00
2019-05-29T02:34:26.881Z,100.00
2019-05-29T02:36:56.330Z,100.00
2019-05-29T02:39:27.336Z,100.00
2019-05-29T02:41:57.751Z,100.00
2019-05-29T02:44:28.227Z,100.00
2019-05-29T02:46:59.320Z,100.00
2019-05-29T02:49:30.359Z,100.00
2019-05-29T02:52:12.524Z,100.00
2019-05-29T02:54:42.290Z,100.00
2019-05-29T02:57:12.259Z,100.00
2019-05-29T02:59:42.042Z,100.00
2019-05-29T03:02:11.851Z,100.00
2019-05-29T03:04:41.594Z,100.00
2019-05-29T03:07:11.547Z,100.00
2019-05-29T03:09:41.419Z,100.00
2019-05-29T03:12:11.178Z,100.00
2019-05-29T03:14:40.925Z,100.00
2019-05-29T03:17:10.714Z,100.00
2019-05-29T03:19:40.450Z,100.00
2019-05-29T03:22:10.282Z,100.00
2019-05-29T03:24:39.961Z,100.00
2019-05-29T03:27:09.706Z,100.00
2019-05-29T03:29:39.543Z,100.00
2019-05-29T03:32:14.091Z,100.00
2019-05-29T03:34:46.125Z,100.00
2019-05-29T03:37:12.490Z,100.00
2019-05-29T03:39:42.461Z,100.00
2019-05-29T03:42:12.291Z,100.00
2019-05-29T03:44:42.207Z,100.00
2019-05-29T03:47:11.994Z,100.00
2019-05-29T03:49:41.732Z,100.00
2019-05-29T03:52:12.454Z,100.00
2019-05-29T03:54:42.198Z,100.00
2019-05-29T03:57:11.912Z,100.00
2019-05-29T03:59:41.662Z,100.00
2019-05-29T04:02:11.565Z,100.00
2019-05-29T04:04:41.314Z,100.00
2019-05-29T04:07:11.065Z,100.00
2019-05-29T04:09:40.905Z,100.00
2019-05-29T04:12:10.947Z,100.00
2019-05-29T04:14:40.819Z,100.00
2019-05-29T04:17:13.325Z,100.00
2019-05-29T04:19:44.501Z,90.62
2019-05-29T04:22:17.356Z,78.54
2019-05-29T04:24:48.384Z,69.62
2019-05-29T04:27:21.354Z,66.96
2019-05-29T04:29:51.482Z,67.07
2019-05-29T04:32:21.308Z,68.57
2019-05-29T04:34:51.175Z,70.20
2019-05-29T04:37:21.152Z,69.07
2019-05-29T04:39:50.933Z,67.05
2019-05-29T04:42:20.733Z,69.40
2019-05-29T04:44:50.632Z,70.54
2019-05-29T04:47:20.402Z,68.92
2019-05-29T04:49:50.135Z,67.72
2019-05-29T04:52:19.865Z,69.04
2019-05-29T04:54:49.601Z,71.77
2019-05-29T04:57:19.416Z,75.76
2019-05-29T04:59:49.328Z,79.20
2019-05-29T05:02:19.107Z,82.18
2019-05-29T05:04:48.829Z,85.53
2019-05-29T05:07:18.569Z,86.63
2019-05-29T05:09:48.304Z,87.73
2019-05-29T05:12:18.213Z,86.82
2019-05-29T05:14:48.055Z,88.01
2019-05-29T05:17:26.136Z,88.34
2019-05-29T05:19:49.353Z,88.81
2019-05-29T05:22:19.136Z,87.75
2019-05-29T05:24:49.504Z,87.77
2019-05-29T05:27:19.301Z,85.74
2019-05-29T05:29:49.038Z,86.38
2019-05-29T05:32:18.841Z,86.49
2019-05-29T05:34:48.578Z,85.82
2019-05-29T05:37:18.378Z,82.40
2019-05-29T05:39:48.121Z,82.88
2019-05-29T05:42:18.009Z,81.77
2019-05-29T05:44:47.737Z,79.83
2019-05-29T05:47:17.547Z,82.18
2019-05-29T05:49:47.313Z,80.66
2019-05-29T05:52:17.035Z,80.82
2019-05-29T05:54:46.804Z,80.06
2019-05-29T05:57:16.515Z,78.97
2019-05-29T05:59:46.335Z,75.83
2019-05-29T06:02:16.262Z,75.46
2019-05-29T06:04:46.022Z,75.70
2019-05-29T06:07:15.814Z,74.57
2019-05-29T06:09:45.622Z,74.39
2019-05-29T06:12:15.378Z,72.90
2019-05-29T06:14:45.126Z,74.29
2019-05-29T06:17:14.937Z,71.94
2019-05-29T06:19:44.744Z,69.03
2019-05-29T06:22:14.443Z,63.31
2019-05-29T06:24:44.184Z,61.10
2019-05-29T06:27:13.937Z,60.13
2019-05-29T06:29:43.787Z,58.99
2019-05-29T06:32:13.635Z,56.12
2019-05-29T06:34:43.883Z,56.57
2019-05-29T06:37:13.854Z,59.88
2019-05-29T06:39:43.902Z,61.20
2019-05-29T06:42:13.803Z,64.04
2019-05-29T06:44:44.979Z,60.97
2019-05-29T06:47:15.010Z,59.30
2019-05-29T06:49:44.778Z,62.57
2019-05-29T06:52:16.229Z,63.82
2019-05-29T06:54:45.970Z,64.01
2019-05-29T06:57:15.839Z,65.79
2019-05-29T06:59:45.642Z,63.75
2019-05-29T07:02:15.780Z,61.15
2019-05-29T07:04:46.561Z,61.19
2019-05-29T07:07:16.463Z,61.27
2019-05-29T07:09:47.174Z,59.62
2019-05-29T07:12:17.005Z,58.37
2019-05-29T07:14:46.895Z,60.41
2019-05-29T07:17:16.661Z,58.94
2019-05-29T07:19:58.151Z,59.83
2019-05-29T07:22:17.933Z,59.23
2019-05-29T07:24:47.750Z,60.57
2019-05-29T07:27:17.574Z,59.62
2019-05-29T07:29:47.446Z,61.28
2019-05-29T07:32:18.037Z,62.75
2019-05-29T07:35:02.309Z,63.50
2019-05-29T07:37:19.457Z,64.23
2019-05-29T07:39:49.393Z,60.09
2019-05-29T07:42:19.269Z,61.09
2019-05-29T07:44:49.032Z,61.47
2019-05-29T07:47:18.886Z,65.28
2019-05-29T07:49:50.176Z,65.25
2019-05-29T07:52:20.242Z,68.12
2019-05-29T07:54:50.262Z,68.66
2019-05-29T07:57:20.167Z,66.32
2019-05-29T07:59:49.875Z,63.00
2019-05-29T08:02:19.743Z,62.36
2019-05-29T08:04:49.866Z,63.01
2019-05-29T08:07:20.133Z,62.95
2019-05-29T08:09:50.016Z,65.68
2019-05-29T08:12:20.079Z,65.89
2019-05-29T08:14:50.265Z,66.56
2019-05-29T08:17:20.318Z,67.01
2019-05-29T08:20:05.470Z,62.51
2019-05-29T08:22:33.748Z,59.70
2019-05-29T08:24:53.237Z,61.72
2019-05-29T08:27:22.992Z,62.57
2019-05-29T08:29:52.755Z,60.63
2019-05-29T08:32:22.652Z,60.54
2019-05-29T08:34:52.505Z,59.96
2019-05-29T08:37:22.344Z,59.66
2019-05-29T08:39:52.097Z,61.01
2019-05-29T08:42:23.771Z,61.36
2019-05-29T08:44:53.438Z,59.90
2019-05-29T08:47:23.287Z,60.07
2019-05-29T08:49:54.598Z,56.95
2019-05-29T08:52:24.604Z,58.54
2019-05-29T08:54:54.369Z,59.87
2019-05-29T08:57:24.178Z,55.54
2019-05-29T08:59:53.905Z,57.84
2019-05-29T09:02:23.783Z,59.35
2019-05-29T09:04:54.878Z,60.08
2019-05-29T09:07:24.941Z,58.45
2019-05-29T09:09:54.778Z,58.35
2019-05-29T09:12:24.501Z,56.30
2019-05-29T09:14:54.307Z,53.66
2019-05-29T09:17:24.328Z,52.62
2019-05-29T09:19:54.224Z,57.19
2019-05-29T09:22:23.968Z,57.16
2019-05-29T09:24:53.851Z,56.36
2019-05-29T09:27:23.789Z,54.49
2019-05-29T09:29:53.606Z,56.02
2019-05-29T09:32:47.922Z,56.71
2019-05-29T09:34:54.809Z,57.63
2019-05-29T09:37:24.641Z,52.16
2019-05-29T09:39:54.484Z,52.20
2019-05-29T09:42:25.450Z,57.68
2019-05-29T09:44:55.454Z,54.92
2019-05-29T09:47:26.389Z,58.27
2019-05-29T09:49:56.493Z,59.80
2019-05-29T09:52:30.264Z,58.82
2019-05-29T09:54:58.232Z,58.70
2019-05-29T09:57:28.215Z,60.87
2019-05-29T09:59:59.798Z,60.04
2019-05-29T10:02:29.565Z,59.55
2019-05-29T10:05:00.548Z,55.31
2019-05-29T10:07:31.022Z,50.87
2019-05-29T10:10:02.998Z,52.17
2019-05-29T10:12:32.598Z,53.26
2019-05-29T10:15:02.805Z,55.26
2019-05-29T10:17:32.782Z,54.20
2019-05-29T10:20:03.299Z,55.50
2019-05-29T10:22:33.337Z,57.55
2019-05-29T10:25:03.731Z,58.85
2019-05-29T10:27:33.565Z,58.97
2019-05-29T10:30:03.845Z,59.50
2019-05-29T10:32:33.718Z,55.56
2019-05-29T10:35:03.948Z,53.95
2019-05-29T10:37:33.720Z,54.18
2019-05-29T10:40:05.248Z,55.22
2019-05-29T10:42:35.058Z,52.91
2019-05-29T10:45:07.880Z,48.30
2019-05-29T10:47:37.705Z,48.01
2019-05-29T10:50:11.235Z,46.08
2019-05-29T10:52:41.168Z,48.95
2019-05-29T10:55:13.529Z,50.96
2019-05-29T10:57:44.747Z,52.43
2019-05-29T11:00:15.218Z,52.75
2019-05-29T11:02:46.118Z,52.23
2019-05-29T11:05:16.561Z,53.99
2019-05-29T11:07:47.587Z,54.82
2019-05-29T11:10:17.563Z,54.12
2019-05-29T11:12:48.404Z,52.32
2019-05-29T11:15:21.778Z,52.14
2019-05-29T11:17:51.391Z,53.02
2019-05-29T11:20:23.100Z,51.11
2019-05-29T11:22:53.683Z,49.82
2019-05-29T11:25:27.588Z,50.30
2019-05-29T11:27:56.565Z,47.37
2019-05-29T11:30:26.825Z,51.59
2019-05-29T11:32:57.570Z,46.85
2019-05-29T11:35:28.062Z,49.47
2019-05-29T11:37:58.867Z,45.86
2019-05-29T11:40:28.995Z,48.49
2019-05-29T11:42:59.234Z,48.51
2019-05-29T11:45:29.220Z,47.14
2019-05-29T11:48:01.488Z,51.01
2019-05-29T11:50:30.722Z,48.79
2019-05-29T11:53:00.560Z,48.53
2019-05-29T11:55:30.437Z,48.13
2019-05-29T11:58:00.219Z,50.44
2019-05-29T12:00:30.479Z,51.59
2019-05-29T12:03:01.703Z,50.56
2019-05-29T12:05:31.579Z,46.92
2019-05-29T12:08:01.889Z,45.57
2019-05-29T12:10:31.875Z,44.20
2019-05-29T12:13:01.871Z,43.09
2019-05-29T12:15:31.629Z,42.17
2019-05-29T12:18:20.072Z,46.14
2019-05-29T12:20:33.083Z,44.02
2019-05-29T12:23:25.545Z,46.94
2019-05-29T12:25:34.473Z,43.78
2019-05-29T12:28:05.009Z,43.86
2019-05-29T12:30:35.170Z,45.98
2019-05-29T12:33:05.884Z,45.83
2019-05-29T12:35:35.719Z,46.54
2019-05-29T12:38:05.802Z,45.48
2019-05-29T12:40:35.749Z,46.27
2019-05-29T12:43:05.708Z,43.93
2019-05-29T12:45:35.615Z,44.27
2019-05-29T12:48:12.348Z,41.17
2019-05-29T12:50:37.316Z,40.75
2019-05-29T12:53:07.481Z,42.25
2019-05-29T12:55:37.344Z,42.95
2019-05-29T12:58:07.242Z,45.24
2019-05-29T13:00:37.111Z,44.80
2019-05-29T13:03:07.112Z,44.38
2019-05-29T13:05:36.885Z,43.33
2019-05-29T13:08:06.760Z,43.07
2019-05-29T13:10:36.580Z,42.70
2019-05-29T13:13:10.759Z,44.44
2019-05-29T13:15:38.037Z,45.27
2019-05-29T13:18:10.158Z,46.96
2019-05-29T13:20:39.874Z,41.79
2019-05-29T13:23:09.791Z,42.73
2019-05-29T13:25:39.792Z,44.55
2019-05-29T13:28:09.670Z,45.14
2019-05-29T13:30:39.567Z,46.07
2019-05-29T13:33:09.550Z,44.98
2019-05-29T13:35:39.478Z,45.18
2019-05-29T13:38:09.449Z,44.71
2019-05-29T13:40:39.478Z,42.51
2019-05-29T13:43:14.907Z,42.79
2019-05-29T13:45:41.034Z,44.30
2019-05-29T13:48:10.759Z,46.50
2019-05-29T13:50:40.551Z,45.54
2019-05-29T13:53:10.597Z,46.35
2019-05-29T13:55:40.350Z,47.71
2019-05-29T13:58:10.335Z,49.51
2019-05-29T14:00:40.219Z,48.13
2019-05-29T14:03:10.071Z,45.37
2019-05-29T14:05:40.229Z,45.88
2019-05-29T14:08:10.288Z,44.67
2019-05-29T14:10:40.125Z,43.69
2019-05-29T14:13:09.976Z,45.02
2019-05-29T14:15:40.047Z,44.84
2019-05-29T14:18:09.901Z,44.32
2019-05-29T14:20:39.750Z,44.29
2019-05-29T14:23:09.759Z,44.48
2019-05-29T14:25:39.657Z,43.16
2019-05-29T14:28:09.633Z,45.21
2019-05-29T14:30:39.791Z,43.58
2019-05-29T14:33:13.009Z,43.90
2019-05-29T14:35:41.281Z,44.07
2019-05-29T14:38:14.796Z,45.20
2019-05-29T14:40:42.553Z,46.31
2019-05-29T14:43:15.434Z,44.67
2019-05-29T14:45:44.152Z,41.39
2019-05-29T14:48:14.066Z,42.34
2019-05-29T14:50:45.002Z,40.36
2019-05-29T14:53:15.021Z,41.87
2019-05-29T14:55:44.927Z,44.09
2019-05-29T14:58:14.851Z,41.69
2019-05-29T15:00:44.605Z,40.24
2019-05-29T15:03:14.453Z,41.71
2019-05-29T15:05:44.396Z,41.35
2019-05-29T15:08:14.337Z,40.76
2019-05-29T15:10:44.298Z,42.58
2019-05-29T15:13:15.378Z,41.83
2019-05-29T15:15:45.748Z,44.02
2019-05-29T15:18:18.827Z,43.81
2019-05-29T15:20:47.046Z,43.74
2019-05-29T15:23:17.023Z,42.21
2019-05-29T15:25:46.848Z,42.07
2019-05-29T15:28:17.987Z,43.42
2019-05-29T15:30:47.975Z,43.05
2019-05-29T15:33:17.851Z,46.28
2019-05-29T15:35:47.624Z,43.40
2019-05-29T15:38:17.435Z,44.38
2019-05-29T15:40:47.254Z,44.04
2019-05-29T15:43:17.331Z,45.25
2019-05-29T15:45:47.368Z,46.45
2019-05-29T15:48:17.541Z,46.84
2019-05-29T15:50:47.468Z,46.25
2019-05-29T15:53:17.415Z,46.39
2019-05-29T15:55:47.147Z,45.13
2019-05-29T15:58:18.033Z,43.32
2019-05-29T16:00:48.269Z,42.89
2019-05-29T16:03:18.280Z,45.63
2019-05-29T16:05:48.143Z,42.74
2019-05-29T16:08:18.394Z,42.95
2019-05-29T16:10:48.311Z,44.79
2019-05-29T16:13:19.085Z,40.37
2019-05-29T16:15:48.967Z,41.75
2019-05-29T16:18:26.608Z,44.10
2019-05-29T16:20:50.351Z,42.83
2019-05-29T16:23:32.322Z,44.73
2019-05-29T16:25:51.637Z,44.05
2019-05-29T16:28:21.619Z,45.10
2019-05-29T16:30:51.637Z,45.14
2019-05-29T16:33:21.400Z,45.70
2019-05-29T16:35:51.312Z,43.83
2019-05-29T16:38:21.851Z,41.19
2019-05-29T16:40:51.717Z,42.33
2019-05-29T16:43:22.412Z,43.65
2019-05-29T16:45:52.662Z,43.21
2019-05-29T16:48:22.935Z,43.14
2019-05-29T16:50:53.754Z,43.12
2019-05-29T16:53:23.619Z,44.57
2019-05-29T16:55:54.433Z,43.35
2019-05-29T16:58:24.593Z,45.25
2019-05-29T17:00:54.451Z,44.90
2019-05-29T17:03:24.273Z,45.59
2019-05-29T17:05:54.098Z,43.82
2019-05-29T17:08:24.611Z,45.54
2019-05-29T17:10:54.499Z,44.95
2019-05-29T17:13:24.774Z,44.71
2019-05-29T17:15:54.810Z,45.52
2019-05-29T17:18:25.079Z,44.45
2019-05-29T17:20:55.101Z,45.45
2019-05-29T17:23:25.141Z,45.89
2019-05-29T17:26:09.590Z,45.38
2019-05-29T17:28:28.231Z,46.31
2019-05-29T17:31:02.038Z,44.98
2019-05-29T17:33:29.574Z,44.25
2019-05-29T17:35:59.427Z,43.77
2019-05-29T17:38:29.287Z,43.89
2019-05-29T17:40:59.197Z,46.10
2019-05-29T17:43:29.046Z,46.36
2019-05-29T17:45:58.866Z,45.38
2019-05-29T17:48:28.616Z,45.54
2019-05-29T17:50:59.377Z,45.96
2019-05-29T17:53:29.305Z,43.87
2019-05-29T17:55:59.138Z,46.43
2019-05-29T17:58:29.064Z,45.66
2019-05-29T18:00:59.030Z,46.10
2019-05-29T18:03:28.927Z,45.14
2019-05-29T18:05:58.690Z,44.22
2019-05-29T18:08:28.609Z,44.80
2019-05-29T18:10:58.438Z,47.98
2019-05-29T18:13:29.715Z,45.80
2019-05-29T18:15:59.696Z,43.95
2019-05-29T18:18:29.559Z,45.49
2019-05-29T18:20:59.318Z,46.23
2019-05-29T18:23:29.169Z,47.60
2019-05-29T18:25:58.992Z,48.46
2019-05-29T18:28:28.709Z,46.90
2019-05-29T18:30:58.651Z,48.96
2019-05-29T18:33:28.957Z,48.61
2019-05-29T18:35:58.855Z,48.47
2019-05-29T18:38:28.893Z,49.30
2019-05-29T18:40:58.810Z,50.00
2019-05-29T18:43:28.793Z,50.45
2019-05-29T18:45:58.633Z,50.77
2019-05-29T18:48:29.516Z,52.07
2019-05-29T18:51:02.712Z,52.42
2019-05-29T18:53:33.118Z,51.70
2019-05-29T18:56:03.044Z,51.76
2019-05-29T18:58:32.806Z,52.21
2019-05-29T19:01:02.628Z,52.22
2019-05-29T19:03:33.101Z,53.76
2019-05-29T19:06:03.054Z,56.41
2019-05-29T19:08:33.038Z,58.16
2019-05-29T19:11:02.839Z,59.48
2019-05-29T19:13:33.499Z,60.00
2019-05-29T19:16:03.527Z,61.81
2019-05-29T19:18:33.421Z,64.24
2019-05-29T19:21:03.378Z,63.71
2019-05-29T19:23:33.303Z,65.07
2019-05-29T19:26:03.181Z,66.18
2019-05-29T19:28:33.064Z,66.94
2019-05-29T19:31:02.942Z,67.56
2019-05-29T19:33:33.553Z,69.34
2019-05-29T19:36:03.620Z,70.83
2019-05-29T19:38:34.190Z,70.98
2019-05-29T19:41:04.311Z,71.96
2019-05-29T19:43:35.501Z,72.93
2019-05-29T19:46:05.944Z,74.75
2019-05-29T19:48:36.513Z,74.43
2019-05-29T19:51:06.800Z,74.30
2019-05-29T19:53:36.675Z,73.06
2019-05-29T19:56:06.580Z,74.34
2019-05-29T19:58:36.484Z,75.02
2019-05-29T20:01:06.608Z,74.75
2019-05-29T20:03:36.766Z,75.33
2019-05-29T20:06:06.861Z,75.95
2019-05-29T20:08:39.464Z,77.15
2019-05-29T20:11:08.542Z,76.17
2019-05-29T20:13:38.410Z,76.32
2019-05-29T20:16:08.378Z,77.63
2019-05-29T20:18:38.543Z,78.49
2019-05-29T20:21:08.799Z,78.85
2019-05-29T20:23:38.900Z,79.56
2019-05-29T20:26:08.970Z,80.83
2019-05-29T20:28:38.891Z,80.40
2019-05-29T20:31:11.892Z,80.86
2019-05-29T20:33:40.597Z,81.84
2019-05-29T20:36:10.562Z,82.67
2019-05-29T20:38:41.370Z,83.18
2019-05-29T20:41:11.333Z,83.84
2019-05-29T20:43:41.849Z,84.52
2019-05-29T20:46:12.016Z,85.58
2019-05-29T20:48:42.663Z,86.08
2019-05-29T20:51:12.868Z,86.17
2019-05-29T20:53:42.718Z,86.39
2019-05-29T20:56:12.587Z,85.76
2019-05-29T20:58:42.647Z,85.67
2019-05-29T21:01:12.708Z,86.40
2019-05-29T21:03:42.706Z,86.69
2019-05-29T21:06:12.518Z,86.14
2019-05-29T21:08:43.371Z,86.42
2019-05-29T21:11:13.739Z,85.29
2019-05-29T21:13:43.948Z,85.27
2019-05-29T21:16:13.866Z,84.24
2019-05-29T21:18:44.162Z,84.35
2019-05-29T21:21:14.039Z,85.04
2019-05-29T21:23:44.689Z,85.50
2019-05-29T21:26:14.457Z,85.54
2019-05-29T21:28:49.861Z,85.09
2019-05-29T21:31:15.943Z,84.65
2019-05-29T21:33:49.222Z,84.03
2019-05-29T21:36:17.365Z,84.00
2019-05-29T21:38:47.273Z,83.14
2019-05-29T21:41:17.135Z,82.44
2019-05-29T21:43:47.106Z,83.59
2019-05-29T21:46:16.830Z,84.79
2019-05-29T21:48:47.482Z,85.25
2019-05-29T21:51:17.330Z,84.29
2019-05-29T21:53:47.582Z,83.14
2019-05-29T21:56:17.550Z,80.63
2019-05-29T21:58:59.956Z,80.95
2019-05-29T22:01:19.063Z,80.18
2019-05-29T22:03:49.017Z,79.66
2019-05-29T22:06:18.838Z,80.22
2019-05-29T22:08:48.810Z,80.16
2019-05-29T22:11:18.800Z,79.10
2019-05-29T22:13:48.764Z,79.37
2019-05-29T22:16:18.652Z,78.73
2019-05-29T22:18:48.541Z,78.73
2019-05-29T22:21:18.269Z,79.48
2019-05-29T22:23:48.031Z,79.03
2019-05-29T22:26:17.861Z,80.18
2019-05-29T22:28:47.634Z,79.60
2019-05-29T22:31:17.488Z,79.44
2019-05-29T22:33:47.379Z,79.03
2019-05-29T22:36:17.244Z,78.40
2019-05-29T22:38:47.118Z,77.72
2019-05-29T22:41:16.969Z,78.48
2019-05-29T22:43:46.704Z,77.40
2019-05-29T22:46:16.471Z,77.29
2019-05-29T22:48:46.381Z,77.13
2019-05-29T22:51:16.186Z,77.11
2019-05-29T22:53:46.083Z,77.11
2019-05-29T22:56:15.903Z,77.15
2019-05-29T22:58:45.819Z,77.54
2019-05-29T23:01:15.817Z,77.14
2019-05-29T23:03:45.712Z,77.19
2019-05-29T23:06:15.622Z,78.08
2019-05-29T23:08:45.446Z,78.27
2019-05-29T23:11:15.280Z,78.41
2019-05-29T23:13:45.046Z,77.72
2019-05-29T23:16:14.928Z,77.54
2019-05-29T23:18:44.697Z,77.73
2019-05-29T23:21:14.438Z,77.94
2019-05-29T23:23:44.222Z,77.59
2019-05-29T23:26:14.123Z,77.42
2019-05-29T23:28:43.969Z,76.38
2019-05-29T23:31:13.906Z,76.38
2019-05-29T23:33:43.716Z,76.29
2019-05-29T23:36:13.580Z,75.95
2019-05-29T23:38:43.468Z,74.74
2019-05-29T23:41:13.269Z,73.88
2019-05-29T23:43:43.197Z,73.25
2019-05-29T23:46:13.003Z,73.31
2019-05-29T23:48:42.759Z,73.07
2019-05-29T23:51:19.860Z,73.29
2019-05-29T23:53:49.755Z,73.86
2019-05-29T23:56:19.518Z,72.33
2019-05-29T23:58:49.349Z,71.92
